Time;durP1;ratioP1;P1;durP2;ratioP2;P2;SDS_P1;SDS_P2;PMS_P1;PMS_P2;Temp;Humidity;BMP_temperature;BMP_pressure;BME280_temperature;BME280_humidity;BME280_pressure;Samples;Min_cycle;Max_cycle;Signal;HPM_P1;HPM_P2
2021/12/10 00:01:49;;;;;;;9.63;2.53;;;;;;;5.47;100.00;96453.25;4924880;29;20062;-89
2021/12/10 00:04:37;;;;;;;13.85;2.05;;;;;;;5.28;100.00;96435.16;4912585;29;20036;-90
2021/12/10 00:07:12;;;;;;;9.48;2.33;;;;;;;5.27;100.00;96446.56;4912903;29;20028;-89
2021/12/10 00:09:46;;;;;;;14.55;2.65;;;;;;;5.13;100.00;96417.38;4918772;29;20047;-89
2021/12/10 00:12:26;;;;;;;13.85;2.17;;;;;;;5.27;100.00;96459.56;4897977;29;20058;-89
2021/12/10 00:14:53;;;;;;;11.27;1.90;;;;;;;5.13;100.00;96440.00;4898879;29;20394;-89
2021/12/10 00:17:21;;;;;;;11.18;2.70;;;;;;;5.28;100.00;96455.94;4899682;29;20414;-90
2021/12/10 00:19:56;;;;;;;14.15;2.00;;;;;;;5.35;100.00;96449.88;4897424;29;20028;-87
2021/12/10 00:22:33;;;;;;;11.60;2.55;;;;;;;5.27;100.00;96438.00;4901089;29;20046;-89
2021/12/10 00:25:17;;;;;;;12.20;2.17;;;;;;;5.07;100.00;96427.88;4931982;29;20574;-90
2021/12/10 00:28:26;;;;;;;16.20;2.30;;;;;;;5.28;100.00;96465.56;4907669;29;20039;-90
2021/12/10 00:31:20;;;;;;;19.65;2.58;;;;;;;5.19;100.00;96440.91;4912886;29;20494;-89
2021/12/10 00:34:17;;;;;;;16.17;1.92;;;;;;;5.32;100.00;96466.72;4927879;29;20082;-90
2021/12/10 00:36:44;;;;;;;17.60;3.22;;;;;;;5.05;100.00;96445.50;4926320;29;20055;-89
2021/12/10 00:39:33;;;;;;;17.52;3.20;;;;;;;5.08;100.00;96434.66;4906849;29;20044;-90
2021/12/10 00:42:12;;;;;;;18.40;3.30;;;;;;;5.20;100.00;96466.69;4895656;29;20107;-89
2021/12/10 00:44:39;;;;;;;23.15;2.45;;;;;;;5.18;100.00;96478.31;4918755;29;20079;-88
2021/12/10 00:47:05;;;;;;;16.70;2.83;;;;;;;5.10;100.00;96489.84;4906232;29;20032;-89
2021/12/10 00:49:33;;;;;;;16.05;3.08;;;;;;;4.69;100.00;96432.44;4911556;29;20035;-89
2021/12/10 00:51:59;;;;;;;12.93;2.00;;;;;;;4.82;100.00;96479.03;4912319;29;20134;-89
2021/12/10 00:54:28;;;;;;;9.48;1.38;;;;;;;4.71;100.00;96475.34;4911752;29;20047;-90
2021/12/10 00:56:54;;;;;;;11.20;1.75;;;;;;;4.47;100.00;96473.66;4907722;29;20031;-90
2021/12/10 00:59:23;;;;;;;10.80;2.15;;;;;;;4.11;100.00;96515.03;4911172;29;20039;-90
2021/12/10 01:01:52;;;;;;;10.70;2.65;;;;;;;4.17;100.00;96503.75;4919545;29;20051;-89
2021/12/10 01:04:25;;;;;;;9.75;2.80;;;;;;;4.10;100.00;96490.84;4908057;29;20036;-89
2021/12/10 01:06:54;;;;;;;11.15;2.15;;;;;;;4.16;100.00;96501.41;4896867;29;20055;-89
2021/12/10 01:09:24;;;;;;;18.23;2.58;;;;;;;4.16;100.00;96528.16;4921456;29;20434;-89
2021/12/10 01:12:10;;;;;;;16.17;2.47;;;;;;;4.05;100.00;96501.09;4898621;29;20028;-89
2021/12/10 01:25:53;;;;;;;17.98;3.42;;;;;;;4.30;100.00;96534.00;4922136;29;20482;-88
2021/12/10 01:28:19;;;;;;;20.88;2.55;;;;;;;4.37;100.00;96549.50;4926572;29;20039;-87
2021/12/10 01:30:45;;;;;;;26.23;3.30;;;;;;;4.42;100.00;96552.25;4916081;29;20079;-87
2021/12/10 01:33:16;;;;;;;19.95;3.15;;;;;;;4.34;100.00;96561.13;4932982;29;20035;-89
2021/12/10 01:35:48;;;;;;;21.48;3.92;;;;;;;4.37;100.00;96554.69;4910562;29;20123;-89
2021/12/10 01:38:19;;;;;;;21.48;3.35;;;;;;;4.42;100.00;96563.44;4904925;29;20490;-90
2021/12/10 01:40:56;;;;;;;14.80;3.60;;;;;;;4.27;100.00;96545.63;4914715;29;20035;-90
2021/12/10 01:43:24;;;;;;;23.52;3.15;;;;;;;4.24;100.00;96558.22;4898943;29;20035;-89
2021/12/10 01:46:10;;;;;;;17.17;3.55;;;;;;;4.26;100.00;96554.41;4897028;29;20072;-89
2021/12/10 01:48:47;;;;;;;12.10;3.15;;;;;;;4.34;100.00;96565.53;4899831;29;20534;-88
2021/12/10 01:51:16;;;;;;;12.75;3.00;;;;;;;4.20;100.00;96578.63;4918475;29;20510;-87
2021/12/10 01:53:48;;;;;;;17.98;3.65;;;;;;;3.98;100.00;96540.09;4906795;29;20142;-87
2021/12/10 01:56:18;;;;;;;15.45;3.42;;;;;;;3.98;100.00;96540.09;4912178;29;20084;-87
2021/12/10 01:58:46;;;;;;;23.25;4.30;;;;;;;4.09;100.00;96580.13;4911039;29;20059;-89
2021/12/10 02:01:24;;;;;;;12.98;3.30;;;;;;;4.03;100.00;96575.78;4899706;29;20095;-88
2021/12/10 02:03:52;;;;;;;23.35;3.95;;;;;;;3.99;100.00;96572.03;4903349;29;20028;-88
2021/12/10 02:06:22;;;;;;;17.00;3.72;;;;;;;3.94;100.00;96582.28;4915349;29;20082;-89
2021/12/10 02:08:49;;;;;;;25.15;4.55;;;;;;;3.99;100.00;96569.44;4892153;29;20134;-88
2021/12/10 02:11:19;;;;;;;27.98;5.15;;;;;;;4.06;100.00;96583.16;4931485;29;21332;-89
2021/12/10 02:13:48;;;;;;;18.88;4.63;;;;;;;3.98;100.00;96575.66;4920343;29;20052;-87
2021/12/10 02:16:15;;;;;;;24.30;6.05;;;;;;;4.25;100.00;96609.97;4900059;29;20036;-88
2021/12/10 02:18:43;;;;;;;28.02;5.05;;;;;;;4.09;100.00;96587.91;4920353;29;20035;-88
2021/12/10 02:21:09;;;;;;;24.08;4.68;;;;;;;4.20;100.00;96625.38;4915846;29;20028;-87
2021/12/10 02:23:38;;;;;;;21.52;5.43;;;;;;;4.20;100.00;96612.38;4914250;29;20059;-88
2021/12/10 02:26:12;;;;;;;16.02;3.17;;;;;;;4.05;100.00;96617.13;4915813;29;20039;-88
2021/12/10 02:28:42;;;;;;;14.88;3.67;;;;;;;3.93;100.00;96596.22;4916971;29;20086;-87
2021/12/10 02:31:12;;;;;;;20.17;2.92;;;;;;;3.89;100.00;96610.66;4914645;29;20352;-88
2021/12/10 02:33:39;;;;;;;16.80;3.30;;;;;;;3.83;100.00;96613.09;4929361;29;20515;-90
2021/12/10 02:36:10;;;;;;;11.60;2.58;;;;;;;3.63;100.00;96581.31;4918015;29;20119;-87
2021/12/10 02:38:40;;;;;;;15.82;2.58;;;;;;;3.85;100.00;96618.84;4914568;29;20032;-88
2021/12/10 02:41:06;;;;;;;14.75;2.60;;;;;;;3.83;100.00;96622.66;4931179;29;20577;-88
2021/12/10 02:43:36;;;;;;;15.70;3.35;;;;;;;3.79;100.00;96606.75;4897892;29;20028;-88
2021/12/10 02:46:03;;;;;;;13.27;3.30;;;;;;;3.78;100.00;96617.31;4915310;29;20088;-88
2021/12/10 02:48:29;;;;;;;13.52;2.50;;;;;;;3.85;100.00;96615.47;4917189;29;20446;-88
2021/12/10 02:51:05;;;;;;;11.23;2.65;;;;;;;3.45;100.00;96562.06;4917468;29;20382;-88
2021/12/10 02:53:35;;;;;;;12.00;2.22;;;;;;;3.79;100.00;96609.34;4912334;29;20059;-88
2021/12/10 02:56:04;;;;;;;16.65;3.10;;;;;;;3.80;100.00;96617.91;4931428;29;20032;-87
2021/12/10 02:58:30;;;;;;;21.55;3.78;;;;;;;3.86;100.00;96625.63;4900376;29;20039;-88
2021/12/10 03:01:30;;;;;;;15.15;3.35;;;;;;;3.89;100.00;96628.81;4913387;29;20032;-87
2021/12/10 03:03:57;;;;;;;19.95;3.38;;;;;;;3.88;100.00;96619.44;4912984;29;20494;-88
2021/12/10 03:06:24;;;;;;;17.80;3.40;;;;;;;3.86;100.00;96630.03;4906320;29;20054;-87
2021/12/10 03:08:52;;;;;;;16.48;3.53;;;;;;;3.98;100.00;96638.72;4909152;29;20107;-87
2021/12/10 03:11:22;;;;;;;18.30;3.70;;;;;;;4.07;100.00;96633.28;4898770;29;20027;-87
2021/12/10 03:13:48;;;;;;;16.85;5.05;;;;;;;4.02;100.00;96636.50;4896887;29;20051;-88
2021/12/10 03:16:15;;;;;;;17.10;4.00;;;;;;;4.04;100.00;96639.69;4898269;29;20130;-88
2021/12/10 03:18:41;;;;;;;26.58;4.07;;;;;;;3.79;100.00;96624.91;4900969;29;20066;-89
2021/12/10 03:21:10;;;;;;;28.08;4.80;;;;;;;3.97;100.00;96672.69;4931670;29;20043;-88
2021/12/10 03:23:42;;;;;;;21.13;4.53;;;;;;;3.93;100.00;96681.88;4901274;29;20035;-87
2021/12/10 03:26:13;;;;;;;20.92;4.15;;;;;;;3.68;100.00;96711.19;4896899;29;20032;-89
2021/12/10 03:28:42;;;;;;;18.85;3.40;;;;;;;3.53;100.00;96691.50;4933559;29;20063;-88
2021/12/10 03:31:08;;;;;;;12.07;2.95;;;;;;;3.32;100.00;96718.53;4918212;29;20068;-89
2021/12/10 03:33:36;;;;;;;8.77;1.98;;;;;;;2.94;100.00;96657.81;4915708;29;20035;-87
2021/12/10 03:36:03;;;;;;;8.43;1.73;;;;;;;2.99;100.00;96680.53;4894983;29;20517;-88
2021/12/10 03:38:30;;;;;;;8.95;2.28;;;;;;;2.83;100.00;96692.16;4916744;29;20070;-88
2021/12/10 03:40:59;;;;;;;12.82;1.88;;;;;;;2.78;100.00;96708.28;4916513;29;20036;-88
2021/12/10 03:43:25;;;;;;;8.45;1.83;;;;;;;2.71;100.00;96716.06;4917733;29;20119;-89
2021/12/10 03:45:54;;;;;;;9.82;1.65;;;;;;;2.68;100.00;96705.34;4901944;29;20403;-88
2021/12/10 03:48:25;;;;;;;5.75;1.85;;;;;;;2.43;100.00;96678.25;4901020;29;20028;-88
2021/12/10 03:50:55;;;;;;;6.00;1.30;;;;;;;2.55;100.00;96690.59;4912956;29;20398;-88
2021/12/10 03:53:23;;;;;;;8.52;1.63;;;;;;;2.56;100.00;96694.78;4934597;29;20027;-88
2021/12/10 03:55:53;;;;;;;10.77;1.45;;;;;;;2.62;100.00;96688.81;4912186;29;20059;-88
2021/12/10 03:58:19;;;;;;;10.25;1.95;;;;;;;2.56;100.00;96694.78;4925303;29;20040;-88
2021/12/10 04:00:49;;;;;;;4.28;1.20;;;;;;;2.58;100.00;96682.44;4900220;29;20463;-88
2021/12/10 04:03:18;;;;;;;6.68;1.42;;;;;;;2.61;100.00;96689.81;4896641;29;20062;-90
2021/12/10 04:05:48;;;;;;;6.35;1.17;;;;;;;2.59;100.00;96694.38;4907547;29;20037;-89
2021/12/10 04:08:14;;;;;;;12.60;1.75;;;;;;;2.47;100.00;96683.03;4912828;29;20078;-87
2021/12/10 04:10:40;;;;;;;9.88;1.80;;;;;;;2.51;100.00;96692.00;4931043;29;20024;-89
2021/12/10 04:13:07;;;;;;;9.80;1.70;;;;;;;2.44;100.00;96694.56;4916632;29;20122;-90
2021/12/10 04:15:36;;;;;;;3.90;0.88;;;;;;;2.33;100.00;96664.13;4914945;29;20036;-87
2021/12/10 04:18:05;;;;;;;10.50;1.17;;;;;;;2.38;100.00;96698.78;4933550;29;20063;-90
2021/12/10 04:20:34;;;;;;;8.25;1.55;;;;;;;2.23;100.00;96654.19;4915142;29;20391;-90
2021/12/10 04:23:04;;;;;;;9.75;2.00;;;;;;;2.33;100.00;96677.84;4911515;29;20071;-87
2021/12/10 04:25:30;;;;;;;4.72;2.10;;;;;;;2.27;100.00;96673.47;4917498;29;20027;-89
2021/12/10 04:28:00;;;;;;;5.15;1.05;;;;;;;2.37;100.00;96694.59;4893775;29;20039;-88
2021/12/10 04:30:27;;;;;;;6.55;1.10;;;;;;;2.35;100.00;96691.41;4914141;29;20027;-90
2021/12/10 04:32:55;;;;;;;9.18;1.15;;;;;;;2.33;100.00;96693.38;4911276;29;20076;-89
2021/12/10 04:35:21;;;;;;;4.93;1.30;;;;;;;2.18;100.00;96731.63;4912460;29;20390;-88
2021/12/10 04:37:49;;;;;;;12.07;1.40;;;;;;;2.32;100.00;96712.50;4910134;29;20038;-86
2021/12/10 04:40:18;;;;;;;11.68;1.42;;;;;;;2.42;100.00;96706.94;4896164;29;20036;-88
2021/12/10 04:42:48;;;;;;;6.10;1.00;;;;;;;2.41;100.00;96685.44;4915473;29;20032;-89
2021/12/10 04:45:16;;;;;;;7.80;1.67;;;;;;;2.26;100.00;96662.34;4896654;29;20055;-89
2021/12/10 04:47:46;;;;;;;11.02;1.58;;;;;;;2.41;100.00;96680.25;4916210;29;20094;-87
2021/12/10 04:50:17;;;;;;;10.40;1.85;;;;;;;2.35;100.00;96686.22;4902083;29;20036;-87
2021/12/10 04:52:43;;;;;;;10.57;1.98;;;;;;;2.46;100.00;96702.16;4922683;29;20122;-85
2021/12/10 04:55:12;;;;;;;13.50;1.88;;;;;;;2.45;100.00;96697.97;4905828;29;20118;-85
2021/12/10 04:57:39;;;;;;;12.65;1.88;;;;;;;2.42;100.00;96686.22;4910031;29;20043;-87
2021/12/10 05:00:09;;;;;;;15.23;1.85;;;;;;;2.42;100.00;96702.56;4887119;29;20571;-86
2021/12/10 05:02:36;;;;;;;7.32;1.40;;;;;;;2.26;100.00;96718.50;4922217;29;20393;-86
2021/12/10 05:05:05;;;;;;;5.90;1.40;;;;;;;2.27;100.00;96704.56;4914169;29;20461;-88
2021/12/10 05:07:35;;;;;;;9.60;1.42;;;;;;;2.23;100.00;96695.59;4902435;29;20036;-87
2021/12/10 05:10:01;;;;;;;10.23;1.83;;;;;;;2.24;100.00;96694.59;4927929;29;20028;-88
2021/12/10 05:12:27;;;;;;;9.18;1.65;;;;;;;2.19;100.00;96691.81;4918916;29;20040;-89
2021/12/10 05:14:59;;;;;;;10.82;2.60;;;;;;;2.16;100.00;96708.53;4889909;29;20038;-88
2021/12/10 05:17:28;;;;;;;6.15;1.25;;;;;;;2.21;100.00;96695.00;4899377;29;20087;-87
2021/12/10 05:19:54;;;;;;;9.55;1.67;;;;;;;2.19;100.00;96712.53;4900395;29;20036;-86
2021/12/10 05:22:20;;;;;;;4.38;1.17;;;;;;;2.14;100.00;96703.53;4930622;29;20050;-89
2021/12/10 05:24:46;;;;;;;9.43;1.90;;;;;;;2.14;100.00;96711.31;4909760;29;20040;-88
2021/12/10 05:27:12;;;;;;;8.93;2.50;;;;;;;2.08;100.00;96691.41;4894152;29;20058;-88
2021/12/10 05:29:38;;;;;;;7.35;1.92;;;;;;;2.11;100.00;96706.53;4910978;29;20035;-89
2021/12/10 05:32:05;;;;;;;6.13;1.42;;;;;;;2.32;100.00;96722.09;4893358;29;20036;-88
2021/12/10 05:34:31;;;;;;;9.25;1.58;;;;;;;2.34;100.00;96723.47;4929060;29;20111;-88
2021/12/10 05:36:58;;;;;;;10.20;1.70;;;;;;;2.30;100.00;96724.06;4902788;29;20144;-87
2021/12/10 05:39:25;;;;;;;7.68;2.05;;;;;;;2.31;100.00;96741.97;4929188;29;20031;-87
2021/12/10 05:41:53;;;;;;;12.13;1.67;;;;;;;2.26;100.00;96700.38;4894693;29;20040;-88
2021/12/10 05:44:19;;;;;;;4.82;1.45;;;;;;;2.25;100.00;96717.69;4905173;29;20091;-88
2021/12/10 05:46:45;;;;;;;12.73;2.20;;;;;;;2.37;100.00;96723.09;4904221;29;20028;-87
2021/12/10 05:49:11;;;;;;;7.30;1.63;;;;;;;2.34;100.00;96738.22;4913782;29;20406;-87
2021/12/10 05:51:37;;;;;;;12.43;1.85;;;;;;;2.21;100.00;96713.91;4919828;29;20051;-90
2021/12/10 05:54:03;;;;;;;8.15;1.67;;;;;;;2.27;100.00;96743.38;4905796;29;20075;-89
2021/12/10 05:56:30;;;;;;;14.88;2.20;;;;;;;2.29;100.00;96741.38;4897600;29;20036;-88
2021/12/10 05:58:56;;;;;;;14.07;2.05;;;;;;;2.18;100.00;96752.34;4913137;29;20044;-86
2021/12/10 06:01:24;;;;;;;6.60;1.27;;;;;;;2.28;100.00;96760.50;4923238;29;20398;-88
2021/12/10 06:03:54;;;;;;;12.13;1.83;;;;;;;2.25;100.00;96753.13;4894771;29;20036;-90
2021/12/10 06:06:27;;;;;;;10.55;1.70;;;;;;;2.26;100.00;96755.53;4926219;29;20395;-88
2021/12/10 06:08:53;;;;;;;11.35;2.28;;;;;;;2.23;100.00;96739.59;4913534;29;20035;-87
2021/12/10 06:11:20;;;;;;;14.68;2.30;;;;;;;2.22;100.00;96761.31;4902384;29;20027;-88
2021/12/10 06:13:46;;;;;;;12.85;2.40;;;;;;;2.13;100.00;96758.88;4894746;29;20035;-89
2021/12/10 06:16:14;;;;;;;14.93;2.25;;;;;;;2.11;100.00;96753.09;4905951;29;20031;-90
2021/12/10 06:18:40;;;;;;;7.88;2.15;;;;;;;2.12;100.00;96780.59;4901839;29;20040;-90
2021/12/10 06:21:06;;;;;;;8.77;2.15;;;;;;;2.08;100.00;96748.34;4908864;29;20483;-90
2021/12/10 06:23:32;;;;;;;11.80;1.73;;;;;;;2.11;100.00;96767.84;4918699;29;20032;-89
2021/12/10 06:25:58;;;;;;;12.43;2.35;;;;;;;2.05;100.00;96748.72;4903424;29;20151;-89
2021/12/10 06:28:24;;;;;;;12.55;1.90;;;;;;;2.21;100.00;96772.66;4896473;29;20040;-89
2021/12/10 06:30:52;;;;;;;9.55;1.90;;;;;;;2.12;100.00;96774.63;4906371;29;20458;-89
2021/12/10 06:33:21;;;;;;;6.18;1.58;;;;;;;2.06;100.00;96771.03;4908931;29;20036;-89
2021/12/10 06:35:51;;;;;;;14.43;2.05;;;;;;;2.16;100.00;96780.19;4929848;29;20052;-90
2021/12/10 06:38:18;;;;;;;9.98;2.55;;;;;;;2.32;100.00;96831.59;4904967;29;20127;-88
2021/12/10 06:40:44;;;;;;;7.55;2.03;;;;;;;2.31;100.00;96865.47;4915323;29;20084;-89
2021/12/10 06:43:13;;;;;;;6.85;1.92;;;;;;;2.28;100.00;96825.22;4913683;29;20035;-89
2021/12/10 06:45:41;;;;;;;6.20;1.67;;;;;;;2.36;100.00;96853.53;4920862;29;20406;-89
2021/12/10 06:48:10;;;;;;;11.65;1.73;;;;;;;2.38;100.00;96858.50;4908260;29;20489;-89
2021/12/10 06:50:43;;;;;;;19.55;2.08;;;;;;;2.39;100.00;96860.91;4913093;29;20028;-89
2021/12/10 06:53:08;;;;;;;14.88;1.90;;;;;;;2.35;100.00;96851.91;4896980;29;20032;-89
2021/12/10 06:55:35;;;;;;;14.15;3.15;;;;;;;2.23;100.00;96874.97;4934297;29;20421;-89
2021/12/10 06:58:03;;;;;;;20.15;3.30;;;;;;;2.31;100.00;96871.41;4933890;29;20028;-89
2021/12/10 07:00:34;;;;;;;11.20;2.15;;;;;;;2.24;100.00;96874.00;4910897;29;20095;-89
2021/12/10 07:02:59;;;;;;;9.68;2.05;;;;;;;2.22;100.00;96877.78;4905826;29;20035;-88
2021/12/10 07:05:25;;;;;;;9.32;2.45;;;;;;;2.18;100.00;96877.38;4914398;29;20422;-89
2021/12/10 07:07:52;;;;;;;18.45;2.30;;;;;;;2.11;100.00;96903.22;4935639;29;20043;-89
2021/12/10 07:10:18;;;;;;;14.98;2.75;;;;;;;2.10;100.00;96893.84;4913777;29;20454;-87
2021/12/10 07:12:45;;;;;;;10.95;2.25;;;;;;;2.13;100.00;96936.69;4910893;29;20028;-87
2021/12/10 07:15:13;;;;;;;8.13;2.10;;;;;;;2.13;100.00;96940.06;4908977;29;20036;-87
2021/12/10 07:17:44;;;;;;;10.10;2.50;;;;;;;2.14;100.00;96949.41;4925110;29;20047;-88
2021/12/10 07:20:13;;;;;;;16.38;2.67;;;;;;;2.15;100.00;96955.41;4899450;29;20119;-89
2021/12/10 07:22:40;;;;;;;14.98;2.63;;;;;;;2.01;100.00;96915.72;4896199;29;20039;-90
2021/12/10 07:25:07;;;;;;;12.95;2.00;;;;;;;2.10;100.00;96926.72;4920233;29;20046;-87
2021/12/10 07:27:33;;;;;;;13.45;2.78;;;;;;;2.21;100.00;96966.78;4903014;29;20039;-89
2021/12/10 07:29:58;;;;;;;16.98;4.13;;;;;;;2.16;100.00;96935.47;4909154;29;20061;-89
2021/12/10 07:32:24;;;;;;;10.68;2.58;;;;;;;2.24;100.00;96948.28;4922364;29;20111;-90
2021/12/10 07:34:51;;;;;;;8.80;1.92;;;;;;;2.09;100.00;96936.25;4898643;29;20028;-90
2021/12/10 07:37:16;;;;;;;12.20;2.38;;;;;;;2.29;100.00;96971.78;4912359;29;20402;-90
2021/12/10 07:39:42;;;;;;;10.57;2.13;;;;;;;2.26;100.00;96982.53;4914764;29;20027;-88
2021/12/10 07:42:09;;;;;;;13.77;2.65;;;;;;;2.19;100.00;96976.53;4894563;29;20451;-88
2021/12/10 07:44:37;;;;;;;9.50;1.83;;;;;;;2.31;100.00;96979.38;4905060;29;20095;-86
2021/12/10 07:47:11;;;;;;;11.80;3.30;;;;;;;2.30;100.00;96978.56;4907147;29;20482;-84
2021/12/10 07:49:38;;;;;;;7.53;2.17;;;;;;;2.14;100.00;96980.47;4925331;29;20114;-89
2021/12/10 07:52:14;;;;;;;15.93;2.55;;;;;;;2.19;100.00;96990.25;4921017;29;20036;-86
2021/12/10 07:54:46;;;;;;;14.32;2.83;;;;;;;2.34;100.00;96999.69;4914124;29;20039;-85
2021/12/10 07:57:17;;;;;;;16.75;2.70;;;;;;;2.33;100.00;97008.44;4920756;29;20490;-86
2021/12/10 07:59:43;;;;;;;13.23;3.20;;;;;;;2.32;100.00;97022.38;4910025;29;20059;-89
2021/12/10 08:02:09;;;;;;;9.18;2.90;;;;;;;2.26;100.00;97000.66;4911113;29;20058;-86
2021/12/10 08:04:36;;;;;;;15.73;3.20;;;;;;;2.08;100.00;97004.53;4891605;29;20055;-85
2021/12/10 08:07:02;;;;;;;16.77;3.42;;;;;;;2.28;100.00;97001.25;4918818;29;20482;-87
2021/12/10 08:09:28;;;;;;;13.65;3.92;;;;;;;2.20;100.00;97024.72;4895798;29;20042;-86
2021/12/10 08:11:53;;;;;;;9.18;2.83;;;;;;;2.14;100.00;97028.88;4887797;29;20032;-86
2021/12/10 08:14:20;;;;;;;11.95;2.92;;;;;;;2.11;100.00;97032.63;4903549;29;20413;-87
2021/12/10 08:16:46;;;;;;;12.40;2.80;;;;;;;2.12;100.00;97039.41;4893154;29;20030;-86
2021/12/10 08:19:13;;;;;;;13.48;3.08;;;;;;;2.13;100.00;97043.56;4895492;29;20036;-88
2021/12/10 08:21:40;;;;;;;14.45;3.13;;;;;;;2.11;100.00;97042.97;4915954;29;20042;-87
2021/12/10 08:24:06;;;;;;;7.97;2.88;;;;;;;2.14;100.00;97058.13;4906316;29;20114;-88
2021/12/10 08:26:33;;;;;;;8.93;2.33;;;;;;;2.12;100.00;97060.09;4906609;29;20039;-87
2021/12/10 08:28:59;;;;;;;6.80;1.92;;;;;;;2.04;100.00;97072.38;4909113;29;20042;-87
2021/12/10 08:31:24;;;;;;;9.82;2.20;;;;;;;2.07;100.00;97066.84;4915735;29;20031;-88
2021/12/10 08:33:51;;;;;;;10.35;1.88;;;;;;;2.07;100.00;97065.06;4899223;29;20406;-86
2021/12/10 08:36:21;;;;;;;8.60;1.48;;;;;;;2.20;100.00;97068.72;4896398;29;20072;-86
2021/12/10 08:38:48;;;;;;;13.82;2.17;;;;;;;2.10;100.00;97062.06;4899882;29;20032;-85
2021/12/10 08:41:18;;;;;;;8.02;1.65;;;;;;;2.24;100.00;97093.25;4890367;29;20491;-86
2021/12/10 08:43:44;;;;;;;9.18;2.70;;;;;;;2.12;100.00;97065.28;4902725;29;20036;-89
2021/12/10 08:46:12;;;;;;;6.75;2.13;;;;;;;2.24;100.00;97104.38;4928512;29;20510;-84
2021/12/10 08:48:38;;;;;;;14.35;2.40;;;;;;;2.06;100.00;97080.75;4908593;29;20482;-85
2021/12/10 08:51:08;;;;;;;11.52;2.70;;;;;;;2.22;100.00;97116.72;4919545;29;20039;-84
2021/12/10 08:53:34;;;;;;;11.65;2.58;;;;;;;2.05;100.00;97098.09;4929536;29;20042;-84
2021/12/10 08:56:00;;;;;;;12.38;2.70;;;;;;;2.12;100.00;97127.41;4923934;29;20039;-83
2021/12/10 08:58:27;;;;;;;10.00;2.92;;;;;;;2.16;100.00;97106.31;4909405;29;20500;-82
2021/12/10 09:00:58;;;;;;;10.00;2.25;;;;;;;2.26;100.00;97127.50;4889835;29;20039;-83
2021/12/10 09:03:24;;;;;;;14.10;2.83;;;;;;;2.35;100.00;97136.72;4894806;29;20487;-82
2021/12/10 09:05:50;;;;;;;10.10;3.30;;;;;;;2.11;100.00;97093.94;4928848;29;20143;-82
2021/12/10 09:08:16;;;;;;;10.85;2.88;;;;;;;2.34;100.00;97139.50;4914764;29;20502;-85
2021/12/10 09:10:44;;;;;;;17.08;3.63;;;;;;;2.31;100.00;97135.50;4929627;29;20026;-89
2021/12/10 09:13:15;;;;;;;8.68;2.42;;;;;;;2.40;100.00;97177.59;4908286;29;20063;-88
2021/12/10 09:15:46;;;;;;;18.92;2.90;;;;;;;2.42;100.00;97162.66;4925227;29;20418;-93
2021/12/10 09:18:16;;;;;;;11.82;3.22;;;;;;;2.33;100.00;97148.25;4913349;29;20040;-89
2021/12/10 09:20:47;;;;;;;8.85;4.32;;;;;;;2.46;100.00;97173.44;4911153;29;20399;-87
2021/12/10 09:23:18;;;;;;;14.45;4.32;;;;;;;2.42;100.00;97163.47;4899407;29;20059;-89
2021/12/10 09:25:45;;;;;;;10.05;3.25;;;;;;;2.36;100.00;97168.59;4899793;29;20040;-85
2021/12/10 09:28:12;;;;;;;13.48;3.50;;;;;;;2.54;100.00;97171.53;4897266;29;20056;-90
2021/12/10 09:30:45;;;;;;;16.00;2.85;;;;;;;2.62;100.00;97177.53;4911719;29;20044;-89
2021/12/10 09:33:11;;;;;;;14.75;2.85;;;;;;;2.56;100.00;97163.56;4898143;29;20040;-90
2021/12/10 09:35:37;;;;;;;11.10;3.08;;;;;;;2.60;100.00;97185.50;4896701;29;20059;-88
2021/12/10 09:38:06;;;;;;;9.75;2.20;;;;;;;2.48;100.00;97176.66;4893937;29;20051;-88
2021/12/10 09:40:36;;;;;;;11.93;2.20;;;;;;;2.34;100.00;97186.91;4912148;29;20071;-88
2021/12/10 09:43:03;;;;;;;7.82;2.15;;;;;;;2.52;100.00;97159.75;4899181;29;20040;-91
2021/12/10 09:45:32;;;;;;;9.77;2.63;;;;;;;2.42;100.00;97163.47;4899744;29;20043;-90
2021/12/10 09:47:59;;;;;;;6.72;2.28;;;;;;;2.77;100.00;97221.50;4899292;29;20044;-89
2021/12/10 09:50:29;;;;;;;10.68;2.50;;;;;;;2.81;100.00;97196.81;4894885;29;20394;-90
2021/12/10 09:52:55;;;;;;;6.10;2.25;;;;;;;2.68;100.00;97208.66;4897450;29;20054;-89
2021/12/10 09:55:23;;;;;;;15.20;2.72;;;;;;;2.82;100.00;97198.41;4897280;29;20043;-87
2021/12/10 09:57:51;;;;;;;8.95;2.03;;;;;;;2.78;100.00;97192.00;4893667;29;20090;-90
2021/12/10 10:00:32;;;;;;;17.73;2.20;;;;;;;3.05;100.00;97233.63;4914167;29;20064;-91
2021/12/10 10:03:02;;;;;;;9.25;1.92;;;;;;;2.82;100.00;97219.91;4919908;29;20047;-89
2021/12/10 10:05:32;;;;;;;10.55;2.38;;;;;;;2.86;100.00;97230.72;4934051;29;20542;-91
2021/12/10 10:08:03;;;;;;;8.43;2.35;;;;;;;2.84;100.00;97230.88;4919073;29;20054;-90
2021/12/10 10:10:30;;;;;;;11.85;2.40;;;;;;;2.74;100.00;97232.22;4931584;29;20039;-89
2021/12/10 10:12:57;;;;;;;8.15;2.40;;;;;;;3.02;100.00;97263.31;4911406;29;20070;-90
2021/12/10 10:15:31;;;;;;;10.55;2.67;;;;;;;2.99;100.00;97266.28;4926585;29;20079;-87
2021/12/10 10:18:00;;;;;;;11.55;2.13;;;;;;;3.12;100.00;97265.56;4898459;29;20028;-85
2021/12/10 10:20:28;;;;;;;14.88;2.88;;;;;;;3.07;100.00;97263.56;4899139;29;20034;-88
2021/12/10 10:22:54;;;;;;;14.10;3.33;;;;;;;3.24;100.00;97284.78;4931222;29;20035;-85
2021/12/10 10:25:25;;;;;;;6.88;2.13;;;;;;;3.19;100.00;97257.81;4900952;29;20090;-84
2021/12/10 10:27:51;;;;;;;11.10;2.22;;;;;;;3.21;100.00;97269.63;4898492;29;20126;-86
2021/12/10 10:30:28;;;;;;;9.18;1.90;;;;;;;3.42;100.00;97312.03;4913121;29;20110;-84
2021/12/10 10:32:56;;;;;;;9.18;1.88;;;;;;;3.37;100.00;97288.47;4924435;29;20059;-86
2021/12/10 10:35:27;;;;;;;5.78;1.40;;;;;;;3.37;100.00;97289.25;4913268;29;20052;-86
2021/12/10 10:37:54;;;;;;;5.05;1.67;;;;;;;3.32;100.00;97295.97;4896882;29;20441;-89
2021/12/10 10:40:24;;;;;;;4.65;1.42;;;;;;;3.39;100.00;97312.41;4914424;29;20115;-85
2021/12/10 10:42:51;;;;;;;4.15;1.10;;;;;;;3.32;100.00;97314.13;4914640;29;20032;-85
2021/12/10 10:45:24;;;;;;;12.57;1.92;;;;;;;3.33;100.00;97323.53;4910251;29;20039;-84
2021/12/10 10:47:50;;;;;;;4.32;1.60;;;;;;;3.42;100.00;97317.22;4926382;29;20446;-85
2021/12/10 10:50:25;;;;;;;5.40;1.50;;;;;;;3.40;100.00;97358.09;4909795;29;20028;-83
2021/12/10 10:52:59;;;;;;;4.78;1.10;;;;;;;3.43;100.00;97318.81;4909759;29;20032;-84
2021/12/10 10:55:29;;;;;;;5.82;1.42;;;;;;;3.48;100.00;97326.81;4899675;29;20043;-82
2021/12/10 10:58:02;;;;;;;8.48;1.10;;;;;;;3.42;100.00;97351.72;4922830;29;20040;-84
2021/12/10 11:00:45;;;;;;;12.13;1.63;;;;;;;3.53;100.00;97339.22;4908130;29;20047;-85
2021/12/10 11:03:17;;;;;;;7.55;1.63;;;;;;;3.59;100.00;97332.47;4913392;29;20168;-85
2021/12/10 11:05:55;;;;;;;7.82;1.52;;;;;;;3.62;100.00;97351.03;4933112;29;20039;-85
2021/12/10 11:08:42;;;;;;;5.00;1.30;;;;;;;3.64;100.00;97348.25;4901704;29;20131;-84
2021/12/10 11:11:29;;;;;;;4.95;1.83;;;;;;;3.69;100.00;97338.09;4911851;29;20047;-85
2021/12/10 11:14:08;;;;;;;9.50;1.73;;;;;;;3.77;100.00;97340.53;4910840;29;20040;-86
2021/12/10 11:16:36;;;;;;;9.30;1.77;;;;;;;3.77;100.00;97331.94;4928355;29;20032;-85
2021/12/10 11:19:09;;;;;;;8.13;2.17;;;;;;;3.78;100.00;97342.13;4911919;29;20031;-84
2021/12/10 11:22:12;;;;;;;13.10;1.88;;;;;;;3.74;100.00;97327.97;4910994;29;20046;-84
2021/12/10 11:24:46;;;;;;;7.82;1.73;;;;;;;3.88;100.00;97333.19;4897720;29;20047;-82
2021/12/10 11:27:19;;;;;;;8.30;2.03;;;;;;;3.85;100.00;97327.38;4910864;29;20398;-82
2021/12/10 11:30:03;;;;;;;7.72;1.60;;;;;;;3.80;100.00;97344.53;4929141;29;20091;-86
2021/12/10 11:32:55;;;;;;;8.20;1.48;;;;;;;3.88;100.00;97351.34;4898814;29;20032;-84
2021/12/10 11:35:30;;;;;;;6.00;1.90;;;;;;;3.75;100.00;97352.91;4906031;29;20055;-83
2021/12/10 11:38:01;;;;;;;5.80;1.90;;;;;;;3.79;100.00;97351.53;4919935;29;20119;-84
2021/12/10 11:40:38;;;;;;;8.52;1.77;;;;;;;3.77;100.00;97376.88;4912919;29;20044;-84
2021/12/10 11:43:43;;;;;;;10.48;1.98;;;;;;;3.72;100.00;97354.09;4921001;29;20056;-84
2021/12/10 11:47:02;;;;;;;6.05;2.05;;;;;;;3.81;100.00;97372.91;4898873;29;20402;-84
2021/12/10 11:49:33;;;;;;;8.32;2.00;;;;;;;3.81;100.00;97403.22;4905282;29;20118;-84
2021/12/10 11:52:20;;;;;;;6.10;1.90;;;;;;;3.72;100.00;97387.81;4919209;29;20032;-84
2021/12/10 11:55:07;;;;;;;3.90;1.55;;;;;;;3.76;100.00;97406.41;4913240;29;20039;-84